createdAt,value
2023-05-25T00:02:08.058Z,25.65
2023-05-25T00:04:36.949Z,25.13
2023-05-25T00:07:05.599Z,25.98
2023-05-25T00:09:33.876Z,25.67
2023-05-25T00:12:02.084Z,24.70
2023-05-25T00:14:31.158Z,23.88
2023-05-25T00:17:03.629Z,24.13
2023-05-25T00:19:34.053Z,23.63
2023-05-25T00:22:03.254Z,24.92
2023-05-25T00:24:31.950Z,23.67
2023-05-25T00:27:00.597Z,23.63
2023-05-25T00:29:28.792Z,23.70
2023-05-25T00:31:57.137Z,23.98
2023-05-25T00:34:26.736Z,24.92
2023-05-25T00:36:55.251Z,23.85
2023-05-25T00:39:23.488Z,24.73
2023-05-25T00:41:52.114Z,24.23
2023-05-25T00:44:22.048Z,26.85
2023-05-25T00:46:52.014Z,23.95
2023-05-25T00:49:23.212Z,25.45
2023-05-25T00:51:54.154Z,25.98
2023-05-25T00:54:23.003Z,26.42
2023-05-25T00:56:54.645Z,25.45
2023-05-25T00:59:29.539Z,26.00
2023-05-25T01:02:00.378Z,25.83
2023-05-25T01:04:29.915Z,25.92
2023-05-25T01:07:01.279Z,26.52
2023-05-25T01:09:31.395Z,26.88
2023-05-25T01:12:00.297Z,25.33
2023-05-25T01:14:29.725Z,27.60
2023-05-25T01:16:59.411Z,28.05
2023-05-25T01:19:28.571Z,26.58
2023-05-25T01:22:04.631Z,26.55
2023-05-25T01:24:40.818Z,26.63
2023-05-25T01:27:16.730Z,27.40
2023-05-25T01:29:47.721Z,27.80
2023-05-25T01:32:18.615Z,28.17
2023-05-25T01:34:48.007Z,28.92
2023-05-25T01:37:19.649Z,28.35
2023-05-25T01:39:47.921Z,29.13
2023-05-25T01:42:16.019Z,29.20
2023-05-25T01:44:44.601Z,29.38
2023-05-25T01:47:21.724Z,28.70
2023-05-25T01:50:01.276Z,29.00
2023-05-25T01:52:37.159Z,29.42
2023-05-25T01:55:09.551Z,28.83
2023-05-25T01:57:42.688Z,29.67
2023-05-25T02:00:13.398Z,31.83
2023-05-25T02:02:44.109Z,30.30
2023-05-25T02:05:13.061Z,30.70
2023-05-25T02:07:42.749Z,29.42
2023-05-25T02:10:11.709Z,30.27
2023-05-25T02:12:40.243Z,30.27
2023-05-25T02:15:09.714Z,29.70
2023-05-25T02:17:38.484Z,29.17
2023-05-25T02:20:08.387Z,29.88
2023-05-25T02:22:37.950Z,29.05
2023-05-25T02:25:10.690Z,29.52
2023-05-25T02:27:39.256Z,29.95
2023-05-25T02:30:09.505Z,28.38
2023-05-25T02:32:37.805Z,31.27
2023-05-25T02:35:06.622Z,29.38
2023-05-25T02:37:35.041Z,29.83
2023-05-25T02:40:04.944Z,30.23
2023-05-25T02:42:34.591Z,31.67
2023-05-25T02:45:02.860Z,30.25
2023-05-25T02:47:31.677Z,30.85
2023-05-25T02:50:00.311Z,29.35
2023-05-25T02:52:31.886Z,30.85
2023-05-25T02:55:01.325Z,29.33
2023-05-25T02:57:39.044Z,29.13
2023-05-25T03:00:11.889Z,30.00
2023-05-25T03:02:40.572Z,29.13
2023-05-25T03:05:09.212Z,29.60
2023-05-25T03:07:38.508Z,29.95
2023-05-25T03:10:07.269Z,30.63
2023-05-25T03:12:36.728Z,29.40
2023-05-25T03:15:06.234Z,28.50
2023-05-25T03:17:35.466Z,27.67
2023-05-25T03:20:04.339Z,27.65
2023-05-25T03:22:33.554Z,28.08
2023-05-25T03:25:02.018Z,29.30
2023-05-25T03:27:30.692Z,27.95
2023-05-25T03:30:00.799Z,29.33
2023-05-25T03:32:29.037Z,27.90
2023-05-25T03:34:57.290Z,28.65
2023-05-25T03:37:25.940Z,29.70
2023-05-25T03:39:54.056Z,30.17
2023-05-25T03:42:22.358Z,31.10
2023-05-25T03:44:50.721Z,29.98
2023-05-25T03:47:20.748Z,30.05
2023-05-25T03:49:49.558Z,29.88
2023-05-25T03:52:17.843Z,29.17
2023-05-25T03:54:46.030Z,27.05
2023-05-25T03:57:14.308Z,27.95
2023-05-25T03:59:42.545Z,30.33
2023-05-25T04:02:11.286Z,30.40
2023-05-25T04:04:41.920Z,29.25
2023-05-25T04:07:10.635Z,30.00
2023-05-25T04:09:39.105Z,29.70
2023-05-25T04:12:07.885Z,29.15
2023-05-25T04:14:36.569Z,29.48
2023-05-25T04:17:05.587Z,29.65
2023-05-25T04:19:34.121Z,29.27
2023-05-25T04:22:04.488Z,28.88
2023-05-25T04:24:34.248Z,28.23
2023-05-25T04:27:03.212Z,29.48
2023-05-25T04:29:32.140Z,29.08
2023-05-25T04:32:10.538Z,28.92
2023-05-25T04:34:46.932Z,30.90
2023-05-25T04:37:27.567Z,30.50
2023-05-25T04:39:58.646Z,29.83
2023-05-25T04:42:28.927Z,27.60
2023-05-25T04:44:59.036Z,27.88
2023-05-25T04:47:27.348Z,27.88
2023-05-25T04:49:56.403Z,26.90
2023-05-25T04:52:25.997Z,26.40
2023-05-25T04:54:55.792Z,28.80
2023-05-25T04:57:24.121Z,28.35
2023-05-25T04:59:52.763Z,27.90
2023-05-25T05:02:21.085Z,26.67
2023-05-25T05:04:52.529Z,28.45
2023-05-25T05:07:22.465Z,28.95
2023-05-25T05:09:52.407Z,30.05
2023-05-25T05:12:20.873Z,29.23
2023-05-25T05:14:52.667Z,29.40
2023-05-25T05:17:21.585Z,30.17
2023-05-25T05:19:51.293Z,30.80
2023-05-25T05:22:19.658Z,29.50
2023-05-25T05:24:47.833Z,29.40
2023-05-25T05:27:24.489Z,28.52
2023-05-25T05:30:02.181Z,29.25
2023-05-25T05:32:31.115Z,29.23
2023-05-25T05:35:01.733Z,27.67
2023-05-25T05:37:36.377Z,27.50
2023-05-25T05:40:05.553Z,28.33
2023-05-25T05:42:36.999Z,28.08
2023-05-25T05:45:06.057Z,28.20
2023-05-25T05:47:34.334Z,27.40
2023-05-25T05:50:03.246Z,29.80
2023-05-25T05:52:31.963Z,29.35
2023-05-25T05:55:00.252Z,29.38
2023-05-25T05:57:28.669Z,28.27
2023-05-25T05:59:59.775Z,27.30
2023-05-25T06:02:28.321Z,29.10
2023-05-25T06:04:56.539Z,28.88
2023-05-25T06:07:25.166Z,28.92
2023-05-25T06:09:53.304Z,27.90
2023-05-25T06:12:21.531Z,27.63
2023-05-25T06:14:52.192Z,29.10
2023-05-25T06:17:24.555Z,27.90
2023-05-25T06:19:55.399Z,26.65
2023-05-25T06:22:27.789Z,27.95
2023-05-25T06:24:57.878Z,28.13
2023-05-25T06:27:26.106Z,29.83
2023-05-25T06:29:54.368Z,26.92
2023-05-25T06:32:23.990Z,27.60
2023-05-25T06:34:52.356Z,26.75
2023-05-25T06:37:21.976Z,26.52
2023-05-25T06:39:50.229Z,27.20
2023-05-25T06:42:18.396Z,26.08
2023-05-25T06:44:54.719Z,26.95
2023-05-25T06:47:24.488Z,27.83
2023-05-25T06:49:52.728Z,26.65
2023-05-25T06:52:21.019Z,26.95
2023-05-25T06:54:49.144Z,26.20
2023-05-25T06:57:17.360Z,27.25
2023-05-25T06:59:45.717Z,28.27
2023-05-25T07:02:13.952Z,26.70
2023-05-25T07:04:43.585Z,24.92
2023-05-25T07:07:12.730Z,26.52
2023-05-25T07:09:41.725Z,29.20
2023-05-25T07:12:11.135Z,28.52
2023-05-25T07:14:39.383Z,29.63
2023-05-25T07:17:08.442Z,28.48
2023-05-25T07:19:36.562Z,28.20
2023-05-25T07:22:06.732Z,27.90
2023-05-25T07:24:37.842Z,28.80
2023-05-25T07:27:07.011Z,27.77
2023-05-25T07:29:35.300Z,28.58
2023-05-25T07:32:03.483Z,27.58
2023-05-25T07:34:31.633Z,29.23
2023-05-25T07:36:59.990Z,29.52
2023-05-25T07:39:29.653Z,28.67
2023-05-25T07:41:57.881Z,26.80
2023-05-25T07:44:26.155Z,25.85
2023-05-25T07:46:54.533Z,25.98
2023-05-25T07:49:22.710Z,26.55
2023-05-25T07:51:50.997Z,25.35
2023-05-25T07:54:19.162Z,26.38
2023-05-25T07:56:48.767Z,24.58
2023-05-25T07:59:17.151Z,25.30
2023-05-25T08:01:45.415Z,26.33
2023-05-25T08:04:13.735Z,24.50
2023-05-25T08:06:42.269Z,24.30
2023-05-25T08:09:10.427Z,24.23
2023-05-25T08:11:39.898Z,24.35
2023-05-25T08:14:09.399Z,25.27
2023-05-25T08:16:37.967Z,25.17
2023-05-25T08:19:06.432Z,23.85
2023-05-25T08:21:35.266Z,22.95
2023-05-25T08:24:05.090Z,24.65
2023-05-25T08:26:45.833Z,23.27
2023-05-25T08:29:23.294Z,23.60
2023-05-25T08:31:51.676Z,23.27
2023-05-25T08:34:19.865Z,22.75
2023-05-25T08:36:48.766Z,22.80
2023-05-25T08:39:17.080Z,25.05
2023-05-25T08:41:46.291Z,22.95
2023-05-25T08:44:15.582Z,23.17
2023-05-25T08:46:46.350Z,22.70
2023-05-25T08:49:15.678Z,22.38
2023-05-25T08:51:49.662Z,23.20
2023-05-25T08:54:20.209Z,23.00
2023-05-25T08:56:51.770Z,23.38
2023-05-25T08:59:30.149Z,23.05
2023-05-25T09:02:09.988Z,23.08
2023-05-25T09:04:38.787Z,23.45
2023-05-25T09:07:10.834Z,22.50
2023-05-25T09:09:41.212Z,22.48
2023-05-25T09:12:10.360Z,20.65
2023-05-25T09:14:45.508Z,21.40
2023-05-25T09:17:16.275Z,21.58
2023-05-25T09:19:45.024Z,21.20
2023-05-25T09:22:16.490Z,20.52
2023-05-25T09:24:46.070Z,19.38
2023-05-25T09:27:19.580Z,18.42
2023-05-25T09:29:49.620Z,18.80
2023-05-25T09:32:20.228Z,18.65
2023-05-25T09:34:48.816Z,18.75
2023-05-25T09:37:19.383Z,17.98
2023-05-25T09:39:48.909Z,19.00
2023-05-25T09:42:17.636Z,17.75
2023-05-25T09:44:46.281Z,18.85
2023-05-25T09:47:16.951Z,17.80
2023-05-25T09:49:49.500Z,18.65
2023-05-25T09:52:18.022Z,18.13
2023-05-25T09:54:47.115Z,18.67
2023-05-25T09:57:16.202Z,20.30
2023-05-25T09:59:45.342Z,19.75
2023-05-25T10:02:13.877Z,20.13
2023-05-25T10:04:42.517Z,18.77
2023-05-25T10:07:12.990Z,18.73
2023-05-25T10:09:42.932Z,20.15
2023-05-25T10:12:12.732Z,19.83
2023-05-25T10:14:43.032Z,18.25
2023-05-25T10:17:12.633Z,18.80
2023-05-25T10:19:47.951Z,18.83
2023-05-25T10:22:22.640Z,20.45
2023-05-25T10:24:56.185Z,19.13
2023-05-25T10:27:27.797Z,18.30
2023-05-25T10:29:58.027Z,19.10
2023-05-25T10:32:27.236Z,20.80
2023-05-25T10:34:58.260Z,21.90
2023-05-25T10:37:29.360Z,20.33
2023-05-25T10:39:59.110Z,21.13
2023-05-25T10:42:28.231Z,20.25
2023-05-25T10:44:57.157Z,20.45
2023-05-25T10:47:25.976Z,20.00
2023-05-25T10:49:56.263Z,19.90
2023-05-25T10:52:29.969Z,18.70
2023-05-25T10:54:59.350Z,18.65
2023-05-25T10:57:27.786Z,17.20
2023-05-25T11:00:01.672Z,17.88
2023-05-25T11:02:30.369Z,17.83
2023-05-25T11:05:32.337Z,16.98
2023-05-25T11:08:03.267Z,18.95
2023-05-25T11:10:56.733Z,18.00
2023-05-25T11:13:41.442Z,19.10
2023-05-25T11:16:18.207Z,18.02
2023-05-25T11:18:51.632Z,16.85
2023-05-25T11:21:40.979Z,18.52
2023-05-25T11:24:15.908Z,19.92
2023-05-25T11:27:00.233Z,18.55
2023-05-25T11:29:33.126Z,18.17
2023-05-25T11:32:02.941Z,18.63
2023-05-25T11:34:33.293Z,16.23
2023-05-25T11:37:03.952Z,16.30
2023-05-25T11:39:33.626Z,17.40
2023-05-25T11:42:05.461Z,16.25
2023-05-25T11:44:36.331Z,14.65
2023-05-25T11:47:10.288Z,15.18
2023-05-25T11:49:41.791Z,14.45
2023-05-25T11:52:10.483Z,15.95
2023-05-25T11:54:41.962Z,15.25
2023-05-25T11:57:16.314Z,16.33
2023-05-25T11:59:50.117Z,14.65
2023-05-25T12:02:18.664Z,15.80
2023-05-25T12:04:55.596Z,13.85
2023-05-25T12:07:24.555Z,15.32
2023-05-25T12:10:05.156Z,13.07
2023-05-25T12:12:39.782Z,15.55
2023-05-25T12:15:10.098Z,12.68
2023-05-25T12:17:39.438Z,15.70
2023-05-25T12:20:10.040Z,14.20
2023-05-25T12:22:38.670Z,15.30
2023-05-25T12:25:12.519Z,12.90
2023-05-25T12:27:41.327Z,14.15
2023-05-25T12:30:10.899Z,13.70
2023-05-25T12:32:54.904Z,13.90
2023-05-25T12:35:23.341Z,14.75
2023-05-25T12:37:51.530Z,12.43
2023-05-25T12:40:24.646Z,12.50
2023-05-25T12:42:59.096Z,12.68
2023-05-25T12:45:28.028Z,14.77
2023-05-25T12:47:56.330Z,13.65
2023-05-25T12:50:24.777Z,12.95
2023-05-25T12:52:53.041Z,12.88
2023-05-25T12:55:27.273Z,12.73
2023-05-25T12:57:56.224Z,12.88
2023-05-25T13:00:26.336Z,13.00
2023-05-25T13:02:56.468Z,11.70
2023-05-25T13:05:26.492Z,12.25
2023-05-25T13:07:55.916Z,11.43
2023-05-25T13:10:26.904Z,11.80
2023-05-25T13:12:58.462Z,11.73
2023-05-25T13:15:27.975Z,11.48
2023-05-25T13:17:58.507Z,12.48
2023-05-25T13:20:29.791Z,12.15
2023-05-25T13:22:58.289Z,10.77
2023-05-25T13:25:28.263Z,11.52
2023-05-25T13:27:59.836Z,11.60
2023-05-25T13:30:28.435Z,13.23
2023-05-25T13:32:56.650Z,11.85
2023-05-25T13:35:38.027Z,12.27
2023-05-25T13:38:06.775Z,11.20
2023-05-25T13:40:36.298Z,11.40
2023-05-25T13:43:04.592Z,11.52
2023-05-25T13:45:32.865Z,10.75
2023-05-25T13:48:01.203Z,11.43
2023-05-25T13:50:29.485Z,10.73
2023-05-25T13:52:57.698Z,10.52
2023-05-25T13:55:25.795Z,10.35
2023-05-25T13:57:55.395Z,10.02
2023-05-25T14:00:23.739Z,9.90
2023-05-25T14:02:51.995Z,9.75
2023-05-25T14:05:20.833Z,9.55
2023-05-25T14:07:51.586Z,9.35
2023-05-25T14:10:22.280Z,10.07
2023-05-25T14:12:50.529Z,10.25
2023-05-25T14:15:20.026Z,9.90
2023-05-25T14:17:48.244Z,9.20
2023-05-25T14:20:22.392Z,9.13
2023-05-25T14:22:50.805Z,9.00
2023-05-25T14:25:18.945Z,9.52
2023-05-25T14:27:47.151Z,8.48
2023-05-25T14:30:15.533Z,8.30
2023-05-25T14:32:45.180Z,8.80
2023-05-25T14:35:13.404Z,8.80
2023-05-25T14:37:42.568Z,9.30
2023-05-25T14:40:11.940Z,8.85
2023-05-25T14:42:40.145Z,9.20
2023-05-25T14:45:11.249Z,8.75
2023-05-25T14:47:40.814Z,9.27
2023-05-25T14:50:10.752Z,9.43
2023-05-25T14:52:39.039Z,9.68
2023-05-25T14:55:08.089Z,9.63
2023-05-25T14:57:36.471Z,10.00
2023-05-25T15:00:05.414Z,10.05
2023-05-25T15:02:33.915Z,10.00
2023-05-25T15:05:02.232Z,10.00
2023-05-25T15:07:31.759Z,9.95
2023-05-25T15:09:59.915Z,10.60
2023-05-25T15:12:28.232Z,10.25
2023-05-25T15:14:56.356Z,10.40
2023-05-25T15:17:24.577Z,10.15
2023-05-25T15:19:52.826Z,10.32
2023-05-25T15:22:21.518Z,10.25
2023-05-25T15:24:51.106Z,12.80
2023-05-25T15:27:19.455Z,10.70
2023-05-25T15:29:47.730Z,9.32
2023-05-25T15:32:17.868Z,11.10
2023-05-25T15:34:46.329Z,10.20
2023-05-25T15:37:14.509Z,10.25
2023-05-25T15:39:42.711Z,10.05
2023-05-25T15:42:12.600Z,9.30
2023-05-25T15:44:41.174Z,9.25
2023-05-25T15:47:09.384Z,9.30
2023-05-25T15:49:37.564Z,9.23
2023-05-25T15:52:06.621Z,8.77
2023-05-25T15:54:34.854Z,9.38
2023-05-25T15:57:03.230Z,8.93
2023-05-25T15:59:32.755Z,11.60
2023-05-25T16:02:01.177Z,9.65
2023-05-25T16:04:29.353Z,9.13
2023-05-25T16:06:58.946Z,9.45
2023-05-25T16:09:28.325Z,9.23
2023-05-25T16:11:56.529Z,9.55
2023-05-25T16:14:24.867Z,10.23
2023-05-25T16:16:54.359Z,9.80
2023-05-25T16:19:22.819Z,9.48
2023-05-25T16:21:51.107Z,9.73
2023-05-25T16:24:19.341Z,9.90
2023-05-25T16:26:47.459Z,9.00
2023-05-25T16:29:15.628Z,9.18
2023-05-25T16:31:43.905Z,9.40
2023-05-25T16:34:13.578Z,9.23
2023-05-25T16:36:41.652Z,10.03
2023-05-25T16:39:11.741Z,10.13
2023-05-25T16:41:41.186Z,10.00
2023-05-25T16:44:10.977Z,10.68
2023-05-25T16:46:39.207Z,10.25
2023-05-25T16:49:07.901Z,10.50
2023-05-25T16:51:37.855Z,10.15
2023-05-25T16:54:06.393Z,10.32
2023-05-25T16:56:35.653Z,9.95
2023-05-25T16:59:03.958Z,9.68
2023-05-25T17:01:32.145Z,10.18
2023-05-25T17:04:00.559Z,9.85
2023-05-25T17:06:28.935Z,10.48
2023-05-25T17:08:58.759Z,10.45
2023-05-25T17:11:28.252Z,11.20
2023-05-25T17:13:57.479Z,9.63
2023-05-25T17:16:25.809Z,10.45
2023-05-25T17:18:54.141Z,10.32
2023-05-25T17:21:22.259Z,11.15
2023-05-25T17:23:50.832Z,10.13
2023-05-25T17:26:20.406Z,10.68
2023-05-25T17:28:48.940Z,10.60
2023-05-25T17:31:17.273Z,10.18
2023-05-25T17:33:45.555Z,10.13
2023-05-25T17:36:13.708Z,9.98
2023-05-25T17:38:43.710Z,10.77
2023-05-25T17:41:11.889Z,10.73
2023-05-25T17:43:41.424Z,10.48
2023-05-25T17:46:09.894Z,10.27
2023-05-25T17:48:38.313Z,10.35
2023-05-25T17:51:06.554Z,9.93
2023-05-25T17:53:34.866Z,10.40
2023-05-25T17:56:03.424Z,10.82
2023-05-25T17:58:32.352Z,10.35
2023-05-25T18:01:01.908Z,10.13
2023-05-25T18:03:30.383Z,9.88
2023-05-25T18:05:58.602Z,10.73
2023-05-25T18:08:26.844Z,11.10
2023-05-25T18:10:55.026Z,11.57
2023-05-25T18:13:23.206Z,10.45
2023-05-25T18:15:51.320Z,11.35
2023-05-25T18:18:24.765Z,10.95
2023-05-25T18:20:53.015Z,10.73
2023-05-25T18:23:22.294Z,10.88
2023-05-25T18:25:50.654Z,10.45
2023-05-25T18:28:18.725Z,11.10
2023-05-25T18:30:46.998Z,10.30
2023-05-25T18:33:16.462Z,10.63
2023-05-25T18:35:46.691Z,10.98
2023-05-25T18:38:15.073Z,10.70
2023-05-25T18:40:43.318Z,10.02
2023-05-25T18:43:11.498Z,10.52
2023-05-25T18:45:39.739Z,11.52
2023-05-25T18:48:08.379Z,10.90
2023-05-25T18:50:37.704Z,10.52
2023-05-25T18:53:09.795Z,11.07
2023-05-25T18:55:38.104Z,10.32
2023-05-25T18:58:06.507Z,10.88
2023-05-25T19:00:35.016Z,10.95
2023-05-25T19:03:03.235Z,10.43
2023-05-25T19:05:31.630Z,10.63
2023-05-25T19:08:00.145Z,10.35
2023-05-25T19:10:29.952Z,10.75
2023-05-25T19:12:58.253Z,10.25
2023-05-25T19:15:26.589Z,10.48
2023-05-25T19:17:54.730Z,10.18
2023-05-25T19:20:22.948Z,10.50
2023-05-25T19:22:51.152Z,10.35
2023-05-25T19:25:19.482Z,10.32
2023-05-25T19:27:49.078Z,9.85
2023-05-25T19:30:17.329Z,10.02
2023-05-25T19:32:45.486Z,10.18
2023-05-25T19:35:13.673Z,9.90
2023-05-25T19:37:42.078Z,10.15
2023-05-25T19:40:11.147Z,9.65
2023-05-25T19:42:39.431Z,10.45
2023-05-25T19:45:09.716Z,10.63
2023-05-25T19:47:38.023Z,10.43
2023-05-25T19:50:07.082Z,10.38
2023-05-25T19:52:35.299Z,10.00
2023-05-25T19:55:03.642Z,10.32
2023-05-25T19:57:31.787Z,10.65
2023-05-25T20:00:00.099Z,10.30
2023-05-25T20:02:29.668Z,10.70
2023-05-25T20:04:58.079Z,10.75
2023-05-25T20:07:26.285Z,10.30
2023-05-25T20:09:54.420Z,10.30
2023-05-25T20:12:22.856Z,11.15
2023-05-25T20:14:51.197Z,10.88
2023-05-25T20:17:19.345Z,11.40
2023-05-25T20:19:48.821Z,10.80
2023-05-25T20:22:16.999Z,11.88
2023-05-25T20:24:45.211Z,10.82
2023-05-25T20:27:14.812Z,11.32
2023-05-25T20:29:43.369Z,10.85
2023-05-25T20:32:11.603Z,10.88
2023-05-25T20:34:39.923Z,11.60
2023-05-25T20:37:09.352Z,11.30
2023-05-25T20:39:37.745Z,12.20
2023-05-25T20:42:06.952Z,11.75
2023-05-25T20:44:35.225Z,12.48
2023-05-25T20:47:03.576Z,12.20
2023-05-25T20:49:31.697Z,12.10
2023-05-25T20:51:59.877Z,12.23
2023-05-25T20:54:29.590Z,13.10
2023-05-25T20:56:57.793Z,12.70
2023-05-25T20:59:26.419Z,12.73
2023-05-25T21:01:54.556Z,12.98
2023-05-25T21:04:22.785Z,12.13
2023-05-25T21:06:50.988Z,12.98
2023-05-25T21:09:19.229Z,12.98
2023-05-25T21:11:48.704Z,12.73
2023-05-25T21:14:17.675Z,13.23
2023-05-25T21:16:46.073Z,13.77
2023-05-25T21:19:14.363Z,13.32
2023-05-25T21:21:42.563Z,14.02
2023-05-25T21:24:10.978Z,13.35
2023-05-25T21:26:39.363Z,13.00
2023-05-25T21:29:08.928Z,12.98
2023-05-25T21:31:37.080Z,13.18
2023-05-25T21:34:05.420Z,12.88
2023-05-25T21:36:33.648Z,12.27
2023-05-25T21:39:01.927Z,12.85
2023-05-25T21:41:30.017Z,12.73
2023-05-25T21:43:58.372Z,12.98
2023-05-25T21:46:27.906Z,12.77
2023-05-25T21:48:56.307Z,13.50
2023-05-25T21:51:24.520Z,13.35
2023-05-25T21:53:52.859Z,12.68
2023-05-25T21:56:20.962Z,13.75
2023-05-25T21:58:49.240Z,13.18
2023-05-25T22:01:17.482Z,13.32
2023-05-25T22:03:47.146Z,13.43
2023-05-25T22:06:15.247Z,12.30
2023-05-25T22:08:43.364Z,11.23
2023-05-25T22:11:11.523Z,11.48
2023-05-25T22:13:39.840Z,11.90
2023-05-25T22:16:08.118Z,11.85
2023-05-25T22:18:38.459Z,11.57
2023-05-25T22:21:08.543Z,11.60
2023-05-25T22:23:37.300Z,11.85
2023-05-25T22:26:05.695Z,11.75
2023-05-25T22:28:33.904Z,11.43
2023-05-25T22:31:02.075Z,11.30
2023-05-25T22:33:30.681Z,10.57
2023-05-25T22:35:58.844Z,11.00
2023-05-25T22:38:28.500Z,10.98
2023-05-25T22:40:56.882Z,10.77
2023-05-25T22:43:27.009Z,10.98
2023-05-25T22:45:56.856Z,11.77
2023-05-25T22:48:25.173Z,10.88
2023-05-25T22:50:53.357Z,11.32
2023-05-25T22:53:22.125Z,11.43
2023-05-25T22:55:51.753Z,10.75
2023-05-25T22:58:20.140Z,11.25
2023-05-25T23:00:48.364Z,10.38
2023-05-25T23:03:16.638Z,10.80
2023-05-25T23:05:44.952Z,10.82
2023-05-25T23:08:13.202Z,11.95
2023-05-25T23:10:41.391Z,11.90
2023-05-25T23:13:12.379Z,11.93
2023-05-25T23:15:44.398Z,11.50
2023-05-25T23:18:12.871Z,10.88
2023-05-25T23:20:41.119Z,10.90
2023-05-25T23:23:09.438Z,12.07
2023-05-25T23:25:37.852Z,11.68
2023-05-25T23:28:06.433Z,11.10
2023-05-25T23:30:35.943Z,11.32
2023-05-25T23:33:04.220Z,11.68
2023-05-25T23:35:32.379Z,11.63
2023-05-25T23:38:01.882Z,11.75
2023-05-25T23:40:30.181Z,11.65
2023-05-25T23:42:58.501Z,10.73
2023-05-25T23:45:26.636Z,11.82
2023-05-25T23:47:56.474Z,10.98
2023-05-25T23:50:24.738Z,10.27
2023-05-25T23:52:53.013Z,9.38
2023-05-25T23:55:21.246Z,9.68
2023-05-25T23:57:49.596Z,8.55
